Date,TemperatureHighF,TemperatureAvgF,TemperatureLowF,DewpointHighF,DewpointAvgF,DewpointLowF,HumidityHigh,HumidityAvg,HumidityLow,PressureMaxIn,PressureMinIn,WindSpeedMaxMPH,WindSpeedAvgMPH,GustSpeedMaxMPH,PrecipitationSumIn
2013-10-1,85.2,70.8,60.1,72.0,64.4,58.0,94,82,56,29.91,29.81,6,-318,10,0.01
2013-10-2,82.9,61.2,61.3,72.0,43.4,-99.9,94,73,66,29.94,29.82,9,-249,13,0.00
2013-10-3,84.1,72.8,62.8,71.0,66.8,61.0,94,82,62,29.86,29.75,10,2,16,0.01
2013-10-4,85.5,73.4,63.6,71.0,66.6,62.0,94,80,58,29.84,29.77,9,-390,13,0.00
2013-10-5,71.3,59.2,47.9,68.0,56.9,46.0,93,92,88,29.95,29.79,14,-8,20,0.53
2013-10-6,60.5,51.3,43.1,48.0,45.2,41.0,94,81,60,29.96,29.89,14,2,15,1.54
2013-10-7,69.0,53.3,40.3,54.0,45.4,38.0,94,77,46,30.10,29.96,8,1,12,0.00
2013-10-8,72.4,55.0,40.2,55.0,46.4,38.0,94,76,45,30.12,30.00,6,-10,16,0.01
2013-10-9,75.1,55.8,39.2,56.0,48.0,37.0,94,78,43,30.08,29.98,4,0,8,0.00
2013-10-10,77.8,58.8,43.1,61.0,51.7,41.0,94,80,51,30.06,29.88,6,1,9,0.01
2013-10-11,78.6,62.9,47.5,65.0,57.5,45.0,94,83,64,29.92,29.80,11,2,21,0.01
2013-10-12,70.1,64.5,57.6,65.0,61.0,55.0,92,88,82,30.10,29.82,8,2,12,0.41
2013-10-13,72.1,61.3,51.8,57.0,52.8,49.0,92,75,54,30.26,30.11,8,1,14,0.00
2013-10-14,68.9,59.3,50.8,62.0,55.2,49.0,93,86,75,30.19,29.92,9,1,10,0.10
2013-10-15,66.5,60.8,52.4,65.0,57.8,50.0,93,90,85,29.99,29.81,11,2,14,0.35
2013-10-16,61.2,52.1,41.5,50.0,45.3,39.0,92,79,57,30.06,29.93,7,1,10,0.01
2013-10-17,62.7,49.7,39.5,49.0,44.1,37.0,93,82,56,30.02,29.92,7,1,12,0.00
2013-10-18,62.5,48.4,37.8,51.0,44.3,36.0,94,86,65,30.04,29.91,5,1,9,0.14
2013-10-19,57.1,43.9,35.9,44.0,39.1,34.0,93,84,54,30.07,29.98,9,-11,12,0.08
2013-10-20,68.5,46.8,38.9,46.0,28.4,-99.9,91,65,39,29.99,29.84,10,-143,17,0.00
2013-10-21,56.6,48.0,36.7,49.0,44.6,35.0,92,88,76,30.06,29.90,7,1,9,0.06
2013-10-22,65.6,48.3,33.9,49.0,41.1,32.0,94,78,49,30.05,29.88,15,-72,22,0.00
2013-10-23,61.5,44.9,32.3,44.0,38.0,30.0,93,79,46,30.15,29.96,3,-301,7,0.01
2013-10-24,53.6,42.9,31.5,40.0,34.8,29.0,92,75,48,30.38,30.06,11,2,15,0.00
2013-10-25,57.3,40.8,27.6,37.0,29.9,25.0,93,70,29,30.48,30.19,9,1,12,0.00
2013-10-26,65.3,54.4,41.4,55.0,47.0,34.0,88,76,67,30.18,30.04,14,3,19,0.00
2013-10-27,65.3,51.3,40.1,51.0,44.0,38.0,91,78,47,30.05,29.92,7,1,8,0.00
2013-10-28,69.9,52.8,39.0,58.0,47.5,37.0,94,83,56,30.13,29.98,9,1,13,0.01
2013-10-29,70.5,63.4,49.8,65.0,59.5,48.0,93,87,78,30.09,29.91,8,3,17,0.27
2013-10-30,68.0,64.2,61.3,64.0,61.7,59.0,93,91,86,29.96,29.71,13,2,23,0.84
2013-10-31,74.2,61.7,48.3,66.0,57.3,46.0,93,86,51,29.72,29.36,19,4,30,0.29